Time,TemperatureF,DewpointF,PressureIn,WindDirection,WindDirectionDegrees,WindSpeedMPH,WindSpeedGustMPH,Humidity,HourlyPrecipIn,Conditions,Clouds,dailyrainin,SolarRadiationWatts/m^2,SoftwareType,DateUTC
2013-01-25 00:03:00,53.8,50.3,30.06,WSW,248,1.3,1.3,88,0.00,OVC,,0.03,0.0,WeatherDisplay:10.37,2013-01-25 08:03:00,
2013-01-25 00:08:00,53.8,50.3,30.06,WSW,248,1.2,1.2,88,0.00,RA,OVC,0.00,0.0,WeatherDisplay:10.37,2013-01-25 08:08:00,
2013-01-25 00:13:00,53.8,50.3,30.06,West,270,0.0,0.1,88,0.00,RA,OVC,0.00,0.0,WeatherDisplay:10.37,2013-01-25 08:13:00,
2013-01-25 00:18:00,53.8,50.3,30.06,SW,225,0.0,0.0,88,0.00,OVC,,0.00,0.0,WeatherDisplay:10.37,2013-01-25 08:18:00,
2013-01-25 00:23:00,53.8,50.3,30.06,SW,225,0.0,0.0,88,0.00,OVC,,0.00,0.0,WeatherDisplay:10.37,2013-01-25 08:23:00,
2013-01-25 00:28:00,53.8,50.3,30.04,SSW,202,0.0,0.0,88,0.00,OVC,,0.00,0.0,WeatherDisplay:10.37,2013-01-25 08:28:00,
2013-01-25 00:33:00,53.8,50.3,30.04,SSW,202,0.0,0.0,88,0.00,OVC,,0.00,0.0,WeatherDisplay:10.37,2013-01-25 08:33:00,
2013-01-25 00:38:00,53.8,50.3,30.04,SE,135,0.0,0.0,88,0.00,OVC,,0.00,0.0,WeatherDisplay:10.37,2013-01-25 08:38:00,
2013-01-25 00:43:00,53.8,50.3,30.04,ESE,112,0.0,0.0,88,0.00,OVC,,0.00,0.0,WeatherDisplay:10.37,2013-01-25 08:43:00,
2013-01-25 00:48:00,53.8,50.3,30.03,ESE,112,1.2,0.0,88,0.00,OVC,,0.00,0.0,WeatherDisplay:10.37,2013-01-25 08:48:00,
2013-01-25 00:53:00,53.8,50.3,30.03,SW,225,0.0,0.0,88,0.00,OVC,,0.00,0.0,WeatherDisplay:10.37,2013-01-25 08:53:00,
2013-01-25 00:58:00,53.8,50.3,30.03,South,180,0.0,0.0,88,0.00,OVC,,0.00,0.0,WeatherDisplay:10.37,2013-01-25 08:58:00,
2013-01-25 01:03:00,53.6,50.1,30.03,ENE,68,0.0,0.0,88,0.00,OVC,,0.00,0.0,WeatherDisplay:10.37,2013-01-25 09:03:00,
2013-01-25 01:08:00,53.6,50.1,30.03,SE,135,0.0,0.0,88,0.00,OVC,,0.00,0.0,WeatherDisplay:10.37,2013-01-25 09:08:00,
2013-01-25 01:13:00,53.6,50.1,30.04,WSW,248,0.0,0.0,88,0.00,OVC,,0.00,0.0,WeatherDisplay:10.37,2013-01-25 09:13:00,
2013-01-25 01:18:00,53.6,50.1,30.04,WNW,292,0.0,0.0,88,0.00,OVC,,0.00,0.0,WeatherDisplay:10.37,2013-01-25 09:18:00,
2013-01-25 01:23:00,53.6,50.1,30.04,NW,315,0.0,0.0,88,0.00,OVC,,0.00,0.0,WeatherDisplay:10.37,2013-01-25 09:23:00,
2013-01-25 01:28:00,53.6,50.1,30.05,West,270,0.0,0.0,88,0.00,OVC,,0.00,0.0,WeatherDisplay:10.37,2013-01-25 09:28:00,
2013-01-25 01:33:00,53.6,50.1,30.05,WNW,292,0.0,0.0,88,0.00,OVC,,0.00,0.0,WeatherDisplay:10.37,2013-01-25 09:33:00,
2013-01-25 01:38:00,53.6,50.1,30.05,WSW,248,1.2,1.2,88,0.00,OVC,,0.00,0.0,WeatherDisplay:10.37,2013-01-25 09:38:00,
2013-01-25 01:43:00,53.6,50.1,30.05,WSW,248,1.2,1.2,88,0.00,OVC,,0.00,0.0,WeatherDisplay:10.37,2013-01-25 09:43:00,
2013-01-25 01:49:00,53.6,50.1,30.05,West,270,1.2,1.2,88,0.00,OVC,,0.00,0.0,WeatherDisplay:10.37,2013-01-25 09:49:00,
2013-01-25 01:54:00,53.6,50.1,30.05,West,270,3.5,3.5,88,0.00,OVC,,0.00,0.0,WeatherDisplay:10.37,2013-01-25 09:54:00,
2013-01-25 01:59:00,53.6,50.1,30.05,West,270,2.3,2.3,88,0.00,OVC,,0.00,0.0,WeatherDisplay:10.37,2013-01-25 09:59:00,
2013-01-25 02:04:00,53.6,50.1,30.05,WNW,292,2.3,2.3,88,0.00,OVC,,0.00,0.0,WeatherDisplay:10.37,2013-01-25 10:04:00,
2013-01-25 02:09:00,53.4,50.3,30.05,WSW,248,1.2,1.2,89,0.00,OVC,,0.00,0.0,WeatherDisplay:10.37,2013-01-25 10:09:00,
2013-01-25 02:14:00,53.4,50.3,30.05,NW,315,1.2,1.2,89,0.00,OVC,,0.00,0.0,WeatherDisplay:10.37,2013-01-25 10:14:00,
2013-01-25 02:19:00,53.4,50.3,30.05,WNW,292,1.2,1.2,89,0.00,OVC,,0.00,0.0,WeatherDisplay:10.37,2013-01-25 10:19:00,
2013-01-25 02:24:00,53.4,50.3,30.05,WSW,248,2.3,2.3,89,0.00,OVC,,0.00,0.0,WeatherDisplay:10.37,2013-01-25 10:24:00,
2013-01-25 02:29:00,53.2,50.1,30.04,West,270,2.3,2.3,89,0.00,OVC,,0.00,0.0,WeatherDisplay:10.37,2013-01-25 10:29:00,
2013-01-25 02:34:00,53.2,50.1,30.04,WSW,248,1.2,1.2,89,0.00,OVC,,0.00,0.0,WeatherDisplay:10.37,2013-01-25 10:34:00,
2013-01-25 02:39:00,53.2,50.1,30.04,West,270,2.3,2.3,89,0.00,OVC,,0.00,0.0,WeatherDisplay:10.37,2013-01-25 10:39:00,
2013-01-25 02:44:00,53.2,50.1,30.04,WNW,292,1.2,1.2,89,0.00,OVC,,0.00,0.0,WeatherDisplay:10.37,2013-01-25 10:44:00,
2013-01-25 02:49:00,53.1,49.9,30.05,WSW,248,1.2,1.2,89,0.00,OVC,,0.00,0.0,WeatherDisplay:10.37,2013-01-25 10:49:00,
2013-01-25 02:54:00,53.1,49.9,30.05,WSW,248,1.2,1.2,89,0.00,OVC,,0.00,0.0,WeatherDisplay:10.37,2013-01-25 10:54:00,
2013-01-25 02:59:00,53.1,49.9,30.05,SW,225,0.0,0.3,89,0.00,OVC,,0.00,0.0,WeatherDisplay:10.37,2013-01-25 10:59:00,
2013-01-25 03:04:00,53.1,49.9,30.05,WSW,248,0.0,0.1,89,0.00,OVC,,0.00,0.0,WeatherDisplay:10.37,2013-01-25 11:04:00,
2013-01-25 03:09:00,53.1,49.9,30.04,SW,225,0.0,0.0,89,0.00,OVC,,0.00,0.0,WeatherDisplay:10.37,2013-01-25 11:09:00,
2013-01-25 03:14:00,53.1,49.9,30.04,SSE,158,0.0,0.0,89,0.00,OVC,,0.00,0.0,WeatherDisplay:10.37,2013-01-25 11:14:00,
2013-01-25 03:19:00,53.1,49.9,30.04,SE,135,0.0,0.0,89,0.00,OVC,,0.00,0.0,WeatherDisplay:10.37,2013-01-25 11:19:00,
2013-01-25 03:24:00,52.9,49.7,30.04,ESE,112,0.0,0.0,89,0.00,OVC,,0.00,0.0,WeatherDisplay:10.37,2013-01-25 11:24:00,
2013-01-25 03:29:00,52.9,49.7,30.03,South,180,0.0,0.0,89,0.00,OVC,,0.00,0.0,WeatherDisplay:10.37,2013-01-25 11:29:00,
2013-01-25 03:34:00,52.9,49.7,30.03,SW,225,0.0,0.0,89,0.00,OVC,,0.00,0.0,WeatherDisplay:10.37,2013-01-25 11:34:00,
2013-01-25 03:39:00,52.9,49.4,30.03,West,270,0.0,0.1,88,0.00,OVC,,0.00,0.0,WeatherDisplay:10.37,2013-01-25 11:39:00,
2013-01-25 03:44:00,52.9,49.4,30.03,NW,315,0.0,0.1,88,0.00,OVC,,0.00,0.0,WeatherDisplay:10.37,2013-01-25 11:44:00,
2013-01-25 03:49:00,52.5,49.1,30.03,NNW,338,0.0,0.2,88,0.00,OVC,,0.00,0.0,WeatherDisplay:10.37,2013-01-25 11:49:00,
2013-01-25 03:54:00,52.7,49.2,30.03,NNW,338,0.0,0.2,88,0.00,OVC,,0.00,0.0,WeatherDisplay:10.37,2013-01-25 11:54:00,
2013-01-25 03:59:00,52.5,49.1,30.03,NE,45,0.0,0.0,88,0.00,OVC,,0.00,0.0,WeatherDisplay:10.37,2013-01-25 11:59:00,
2013-01-25 04:04:00,52.5,49.1,30.03,NNE,22,0.0,0.0,88,0.00,OVC,,0.00,0.0,WeatherDisplay:10.37,2013-01-25 12:04:00,
2013-01-25 04:09:00,52.5,49.1,30.03,SSE,158,0.0,0.0,88,0.00,OVC,,0.00,0.0,WeatherDisplay:10.37,2013-01-25 12:09:00,
2013-01-25 04:14:00,52.3,48.9,30.03,SE,135,0.0,0.0,88,0.00,OVC,,0.00,0.0,WeatherDisplay:10.37,2013-01-25 12:14:00,
2013-01-25 04:19:00,52.3,48.9,30.03,ESE,112,0.0,0.0,88,0.00,OVC,,0.00,0.0,WeatherDisplay:10.37,2013-01-25 12:19:00,
2013-01-25 04:24:00,52.3,48.9,30.03,East,90,0.0,0.0,88,0.00,OVC,,0.00,0.0,WeatherDisplay:10.37,2013-01-25 12:24:00,
2013-01-25 04:29:00,52.3,48.9,30.01,NNW,338,0.0,0.0,88,0.00,OVC,,0.00,0.0,WeatherDisplay:10.37,2013-01-25 12:29:00,
2013-01-25 04:34:00,52.2,48.7,30.01,NW,315,1.4,1.4,88,0.00,OVC,,0.00,0.0,WeatherDisplay:10.37,2013-01-25 12:34:00,
2013-01-25 04:39:00,52.0,48.5,30.01,West,270,1.2,1.2,88,0.00,OVC,,0.00,0.0,WeatherDisplay:10.37,2013-01-25 12:39:00,
2013-01-25 04:44:00,52.2,48.7,30.01,West,270,0.0,0.5,88,0.00,OVC,,0.00,0.0,WeatherDisplay:10.37,2013-01-25 12:44:00,
2013-01-25 04:49:00,52.0,48.5,30.02,NNW,338,0.0,0.1,88,0.00,OVC,,0.00,0.0,WeatherDisplay:10.37,2013-01-25 12:49:00,
2013-01-25 04:54:00,52.2,49.0,30.02,NE,45,0.0,0.1,89,0.00,OVC,,0.00,0.0,WeatherDisplay:10.37,2013-01-25 12:54:00,
2013-01-25 04:59:00,52.2,49.0,30.02,North,0,0.0,0.0,89,0.00,OVC,,0.00,0.0,WeatherDisplay:10.37,2013-01-25 12:59:00,
2013-01-25 05:04:00,52.2,49.0,30.02,NW,315,0.0,0.0,89,0.00,OVC,,0.00,0.0,WeatherDisplay:10.37,2013-01-25 13:04:00,
2013-01-25 05:09:00,52.2,49.0,30.04,NW,315,1.2,1.2,89,0.00,OVC,,0.00,0.0,WeatherDisplay:10.37,2013-01-25 13:09:00,
2013-01-25 05:14:00,52.2,49.0,30.04,NW,315,1.4,1.4,89,0.00,OVC,,0.00,0.0,WeatherDisplay:10.37,2013-01-25 13:14:00,
2013-01-25 05:19:00,52.2,49.0,30.04,NW,315,1.2,1.2,89,0.00,OVC,,0.00,0.0,WeatherDisplay:10.37,2013-01-25 13:19:00,
2013-01-25 05:24:00,52.2,49.0,30.04,NW,315,2.3,2.3,89,0.00,OVC,,0.00,0.0,WeatherDisplay:10.37,2013-01-25 13:24:00,
2013-01-25 05:29:00,52.2,49.0,30.03,WNW,292,2.3,2.3,89,0.00,OVC,,0.00,0.0,WeatherDisplay:10.37,2013-01-25 13:29:00,
2013-01-25 05:34:00,52.2,49.0,30.03,NNE,22,2.3,2.3,89,0.00,OVC,,0.00,0.0,WeatherDisplay:10.37,2013-01-25 13:34:00,
2013-01-25 05:39:00,52.2,49.3,30.03,NNW,338,2.3,2.3,90,0.00,OVC,,0.00,0.0,WeatherDisplay:10.37,2013-01-25 13:39:00,
2013-01-25 05:44:00,52.2,49.3,30.03,NW,315,2.3,2.3,90,0.00,OVC,,0.00,0.0,WeatherDisplay:10.37,2013-01-25 13:44:00,
2013-01-25 05:49:00,52.2,49.6,30.03,NW,315,1.2,1.2,91,0.00,OVC,,0.00,0.0,WeatherDisplay:10.37,2013-01-25 13:49:00,
2013-01-25 05:54:00,52.2,49.6,30.03,NW,315,2.3,2.3,91,0.00,OVC,,0.00,0.0,WeatherDisplay:10.37,2013-01-25 13:54:00,
2013-01-25 05:59:00,52.2,49.6,30.03,NW,315,2.3,2.3,91,0.00,OVC,,0.00,0.0,WeatherDisplay:10.37,2013-01-25 13:59:00,
2013-01-25 06:04:00,52.2,49.6,30.03,WNW,292,1.2,1.2,91,0.00,OVC,,0.00,0.0,WeatherDisplay:10.37,2013-01-25 14:04:00,
2013-01-25 06:09:00,52.3,50.1,30.03,NNW,338,2.3,2.3,92,0.00,OVC,,0.00,0.0,WeatherDisplay:10.37,2013-01-25 14:09:00,
2013-01-25 06:14:00,52.3,50.1,30.03,NNW,338,1.2,1.2,92,0.00,OVC,,0.00,0.0,WeatherDisplay:10.37,2013-01-25 14:14:00,
2013-01-25 06:19:00,52.3,50.1,30.03,NNE,22,0.0,0.3,92,0.00,OVC,,0.00,0.0,WeatherDisplay:10.37,2013-01-25 14:19:00,
2013-01-25 06:24:00,52.3,50.1,30.03,West,270,0.0,0.1,92,0.00,OVC,,0.00,0.0,WeatherDisplay:10.37,2013-01-25 14:24:00,
2013-01-25 06:29:00,52.3,50.1,30.03,WNW,292,0.0,0.0,92,0.00,OVC,,0.00,0.0,WeatherDisplay:10.37,2013-01-25 14:29:00,
2013-01-25 06:34:00,52.3,50.1,30.03,West,270,0.0,0.0,92,0.00,OVC,,0.00,0.0,WeatherDisplay:10.37,2013-01-25 14:34:00,
2013-01-25 06:39:00,52.3,50.1,30.03,NNE,22,0.0,0.1,92,0.00,OVC,,0.00,0.0,WeatherDisplay:10.37,2013-01-25 14:39:00,
2013-01-25 06:44:00,52.3,50.1,30.03,NE,45,0.0,0.1,92,0.00,OVC,,0.00,0.0,WeatherDisplay:10.37,2013-01-25 14:44:00,
2013-01-25 06:49:00,52.5,50.3,30.03,West,270,0.0,0.0,92,0.00,OVC,,0.00,0.0,WeatherDisplay:10.37,2013-01-25 14:49:00,
2013-01-25 06:54:00,52.5,50.3,30.03,West,270,0.0,0.0,92,0.00,OVC,,0.00,0.0,WeatherDisplay:10.37,2013-01-25 14:54:00,
2013-01-25 06:59:00,52.3,50.1,30.03,SE,135,0.0,0.0,92,0.00,OVC,,0.00,0.0,WeatherDisplay:10.37,2013-01-25 14:59:00,
2013-01-25 07:04:00,52.3,50.1,30.03,SE,135,0.0,0.0,92,0.00,OVC,,0.00,0.0,WeatherDisplay:10.37,2013-01-25 15:04:00,
2013-01-25 07:09:00,52.3,50.1,30.04,NW,315,0.0,0.0,92,0.00,OVC,,0.00,0.0,WeatherDisplay:10.37,2013-01-25 15:09:00,
2013-01-25 07:14:00,52.3,50.1,30.04,NNW,338,0.0,0.0,92,0.00,OVC,,0.00,0.0,WeatherDisplay:10.37,2013-01-25 15:14:00,
2013-01-25 07:19:00,52.3,50.1,30.04,NW,315,0.0,0.0,92,0.00,OVC,,0.00,0.0,WeatherDisplay:10.37,2013-01-25 15:19:00,
2013-01-25 07:24:00,52.3,50.1,30.04,ESE,112,0.0,0.0,92,0.00,OVC,,0.00,0.0,WeatherDisplay:10.37,2013-01-25 15:24:00,
2013-01-25 07:29:00,52.3,50.1,30.03,SE,135,0.0,0.0,92,0.00,OVC,,0.00,0.0,WeatherDisplay:10.37,2013-01-25 15:29:00,
2013-01-25 07:34:00,52.3,50.1,30.03,SSE,158,0.0,0.0,92,0.00,OVC,,0.00,0.0,WeatherDisplay:10.37,2013-01-25 15:34:00,
2013-01-25 07:39:00,52.3,50.1,30.03,ENE,68,0.0,0.0,92,0.00,OVC,,0.00,0.0,WeatherDisplay:10.37,2013-01-25 15:39:00,
2013-01-25 07:44:00,52.5,50.3,30.03,SE,135,0.0,0.0,92,0.00,OVC,,0.00,0.0,WeatherDisplay:10.37,2013-01-25 15:44:00,
2013-01-25 07:49:00,52.5,50.3,30.02,SE,135,0.0,0.0,92,0.00,OVC,,0.00,0.0,WeatherDisplay:10.37,2013-01-25 15:49:00,
2013-01-25 07:54:00,52.7,50.4,30.02,South,180,0.0,0.0,92,0.00,OVC,,0.00,0.0,WeatherDisplay:10.37,2013-01-25 15:54:00,
2013-01-25 07:59:00,52.9,50.9,30.02,SE,135,2.3,2.3,93,0.00,OVC,,0.00,0.0,WeatherDisplay:10.37,2013-01-25 15:59:00,
2013-01-25 08:04:00,53.1,51.1,30.02,SE,135,1.6,1.6,93,0.00,OVC,,0.00,0.0,WeatherDisplay:10.37,2013-01-25 16:04:00,
2013-01-25 08:09:00,53.2,51.3,30.02,ESE,112,2.3,2.3,93,0.00,OVC,,0.00,0.0,WeatherDisplay:10.37,2013-01-25 16:09:00,
2013-01-25 08:14:00,53.4,51.4,30.02,NNE,22,2.3,2.3,93,0.00,OVC,,0.00,0.0,WeatherDisplay:10.37,2013-01-25 16:14:00,
2013-01-25 08:19:00,53.4,51.4,30.02,ENE,68,1.2,1.2,93,0.00,OVC,,0.00,0.0,WeatherDisplay:10.37,2013-01-25 16:19:00,
2013-01-25 08:24:00,53.4,51.4,30.02,NNE,22,0.0,0.6,93,0.00,OVC,,0.00,0.0,WeatherDisplay:10.37,2013-01-25 16:24:00,
2013-01-25 08:29:00,53.4,51.4,30.01,SE,135,0.0,0.1,93,0.00,OVC,,0.00,0.0,WeatherDisplay:10.37,2013-01-25 16:29:00,
2013-01-25 08:34:00,53.6,51.6,30.01,East,90,0.0,0.1,93,0.00,OVC,,0.00,0.0,WeatherDisplay:10.37,2013-01-25 16:34:00,
2013-01-25 08:39:00,53.6,51.6,30.01,North,0,0.0,0.1,93,0.00,OVC,,0.00,0.0,WeatherDisplay:10.37,2013-01-25 16:39:00,
2013-01-25 08:44:00,53.6,51.6,30.01,WSW,248,1.2,1.2,93,0.00,OVC,,0.00,0.0,WeatherDisplay:10.37,2013-01-25 16:44:00,
2013-01-25 08:49:00,53.6,51.6,30.03,WSW,248,1.3,1.3,93,0.00,OVC,,0.00,0.0,WeatherDisplay:10.37,2013-01-25 16:49:00,
2013-01-25 08:54:00,54.0,52.3,30.03,West,270,2.3,2.3,94,0.00,OVC,,0.00,0.0,WeatherDisplay:10.37,2013-01-25 16:54:00,
2013-01-25 08:59:00,53.8,52.1,30.03,West,270,5.8,5.8,94,0.00,OVC,,0.00,0.0,WeatherDisplay:10.37,2013-01-25 16:59:00,
2013-01-25 09:04:00,53.4,51.7,30.03,NW,315,5.8,5.8,94,0.00,OVC,,0.00,0.0,WeatherDisplay:10.37,2013-01-25 17:04:00,
2013-01-25 09:09:00,53.4,52.0,30.03,NW,315,2.3,2.9,95,0.00,OVC,,0.00,0.0,WeatherDisplay:10.37,2013-01-25 17:09:00,
2013-01-25 09:14:00,53.4,52.0,30.03,NW,315,3.0,3.0,95,0.00,OVC,,0.00,0.0,WeatherDisplay:10.37,2013-01-25 17:14:00,
2013-01-25 09:19:00,53.6,52.2,30.03,West,270,3.5,3.5,95,0.00,OVC,,0.00,0.0,WeatherDisplay:10.37,2013-01-25 17:19:00,
2013-01-25 09:24:00,53.6,52.2,30.03,West,270,2.3,2.3,95,0.00,OVC,,0.00,0.0,WeatherDisplay:10.37,2013-01-25 17:24:00,
2013-01-25 09:29:00,53.6,52.2,30.03,NW,315,2.3,2.3,95,0.00,OVC,,0.00,0.0,WeatherDisplay:10.37,2013-01-25 17:29:00,
2013-01-25 09:34:00,53.8,52.4,30.03,WSW,248,3.5,3.5,95,0.00,OVC,,0.00,0.0,WeatherDisplay:10.37,2013-01-25 17:34:00,
2013-01-25 09:39:00,54.0,52.6,30.03,NW,315,1.2,2.0,95,0.00,OVC,,0.00,0.0,WeatherDisplay:10.37,2013-01-25 17:39:00,
2013-01-25 09:44:00,54.1,52.7,30.03,West,270,2.3,2.3,95,0.00,OVC,,0.00,0.0,WeatherDisplay:10.37,2013-01-25 17:44:00,
2013-01-25 09:49:00,54.5,53.1,30.04,WNW,292,2.6,2.6,95,0.00,OVC,,0.00,0.0,WeatherDisplay:10.37,2013-01-25 17:49:00,
2013-01-25 09:54:00,54.7,53.3,30.04,West,270,2.3,2.3,95,0.00,OVC,,0.00,0.0,WeatherDisplay:10.37,2013-01-25 17:54:00,
2013-01-25 09:59:00,54.9,53.5,30.04,WSW,248,2.3,2.3,95,0.00,OVC,,0.00,0.0,WeatherDisplay:10.37,2013-01-25 17:59:00,
2013-01-25 10:04:00,55.0,53.6,30.04,West,270,1.2,1.2,95,0.00,OVC,,0.00,0.0,WeatherDisplay:10.37,2013-01-25 18:04:00,
2013-01-25 10:09:00,55.4,53.7,30.04,West,270,1.2,1.2,94,0.00,OVC,,0.00,0.0,WeatherDisplay:10.37,2013-01-25 18:09:00,
2013-01-25 10:14:00,55.6,53.9,30.04,NNW,338,2.3,2.3,94,0.00,OVC,,0.00,0.0,WeatherDisplay:10.37,2013-01-25 18:14:00,
2013-01-25 10:19:00,55.8,54.1,30.04,WSW,248,2.3,2.3,94,0.00,OVC,,0.00,0.0,WeatherDisplay:10.37,2013-01-25 18:19:00,
2013-01-25 10:24:00,56.1,54.4,30.04,NW,315,2.3,2.3,94,0.00,OVC,,0.00,0.0,WeatherDisplay:10.37,2013-01-25 18:24:00,
2013-01-25 10:29:00,56.3,54.6,30.03,NW,315,4.6,4.6,94,0.00,OVC,,0.00,0.0,WeatherDisplay:10.37,2013-01-25 18:29:00,
2013-01-25 10:34:00,56.7,55.0,30.03,NNW,338,1.2,2.3,94,0.00,OVC,,0.00,0.0,WeatherDisplay:10.37,2013-01-25 18:34:00,
2013-01-25 10:39:00,56.7,54.7,30.03,NW,315,4.6,4.6,93,0.00,OVC,,0.00,0.0,WeatherDisplay:10.37,2013-01-25 18:39:00,
2013-01-25 10:44:00,56.8,54.8,30.03,NNE,22,4.6,4.6,93,0.00,OVC,,0.00,0.0,WeatherDisplay:10.37,2013-01-25 18:44:00,
2013-01-25 10:49:00,56.8,54.5,30.02,NNE,22,3.5,3.5,92,0.00,OVC,,0.00,0.0,WeatherDisplay:10.37,2013-01-25 18:49:00,
2013-01-25 10:54:00,57.2,54.9,30.02,NW,315,2.4,2.4,92,0.00,OVC,,0.00,0.0,WeatherDisplay:10.37,2013-01-25 18:54:00,
2013-01-25 10:59:00,57.4,54.8,30.02,NW,315,2.9,2.9,91,0.00,OVC,,0.00,0.0,WeatherDisplay:10.37,2013-01-25 18:59:00,
2013-01-25 11:04:00,57.7,55.1,30.02,NNE,22,2.3,2.3,91,0.00,OVC,,0.00,0.0,WeatherDisplay:10.37,2013-01-25 19:04:00,
2013-01-25 11:09:00,58.1,55.2,30.02,WSW,248,2.3,2.3,90,0.00,OVC,,0.00,0.0,WeatherDisplay:10.37,2013-01-25 19:09:00,
2013-01-25 11:14:00,58.6,55.7,30.02,ESE,112,1.2,1.2,90,0.00,OVC,,0.00,0.0,WeatherDisplay:10.37,2013-01-25 19:14:00,
2013-01-25 11:19:00,59.0,55.8,30.02,WSW,248,1.2,1.2,89,0.00,OVC,,0.00,0.0,WeatherDisplay:10.37,2013-01-25 19:19:00,
2013-01-25 11:24:00,59.4,56.1,30.02,NW,315,1.2,1.2,89,0.00,OVC,,0.00,0.0,WeatherDisplay:10.37,2013-01-25 19:24:00,
2013-01-25 11:29:00,59.4,55.8,30.01,North,0,4.6,4.6,88,0.00,OVC,,0.00,0.0,WeatherDisplay:10.37,2013-01-25 19:29:00,
2013-01-25 11:34:00,59.2,55.0,30.01,NW,315,3.5,3.5,86,0.00,OVC,,0.00,0.0,WeatherDisplay:10.37,2013-01-25 19:34:00,
2013-01-25 11:39:00,59.2,54.7,30.01,WSW,248,3.5,3.5,85,0.00,OVC,,0.00,0.0,WeatherDisplay:10.37,2013-01-25 19:39:00,
2013-01-25 11:44:00,59.9,55.1,30.01,NW,315,3.5,3.5,84,0.00,OVC,,0.00,0.0,WeatherDisplay:10.37,2013-01-25 19:44:00,